createdAt,value
2022-09-07T00:00:09.804Z,17.66
2022-09-07T00:00:42.081Z,17.64
2022-09-07T00:01:13.751Z,17.55
2022-09-07T00:01:45.566Z,17.48
2022-09-07T00:02:17.188Z,17.66
2022-09-07T00:02:48.856Z,17.82
2022-09-07T00:03:21.568Z,17.78
2022-09-07T00:03:57.060Z,18.14
2022-09-07T00:04:28.790Z,18.14
2022-09-07T00:05:00.473Z,18.16
2022-09-07T00:05:32.469Z,18.14
2022-09-07T00:06:09.478Z,18.24
2022-09-07T00:06:41.154Z,18.26
2022-09-07T00:07:12.761Z,18.27
2022-09-07T00:07:44.421Z,18.37
2022-09-07T00:08:18.391Z,18.38
2022-09-07T00:08:50.200Z,18.37
2022-09-07T00:09:21.805Z,18.34
2022-09-07T00:09:53.481Z,18.27
2022-09-07T00:10:25.921Z,18.20
2022-09-07T00:11:04.002Z,18.16
2022-09-07T00:11:36.253Z,18.03
2022-09-07T00:12:07.867Z,18.00
2022-09-07T00:12:39.653Z,18.03
2022-09-07T00:13:11.249Z,17.90
2022-09-07T00:13:44.818Z,17.89
2022-09-07T00:14:16.747Z,17.88
2022-09-07T00:14:48.358Z,17.85
2022-09-07T00:15:20.152Z,17.82
2022-09-07T00:15:51.946Z,17.82
2022-09-07T00:16:27.103Z,17.82
2022-09-07T00:16:58.749Z,17.72
2022-09-07T00:17:30.357Z,17.75
2022-09-07T00:18:01.946Z,17.71
2022-09-07T00:18:33.794Z,17.68
2022-09-07T00:19:05.619Z,17.64
2022-09-07T00:19:37.241Z,17.65
2022-09-07T00:20:11.139Z,17.64
2022-09-07T00:20:42.768Z,17.66
2022-09-07T00:21:16.868Z,17.55
2022-09-07T00:21:48.506Z,17.47
2022-09-07T00:22:20.141Z,17.54
2022-09-07T00:22:51.765Z,17.58
2022-09-07T00:23:23.404Z,17.58
2022-09-07T00:23:55.605Z,17.54
2022-09-07T00:24:27.690Z,17.58
2022-09-07T00:24:59.300Z,17.57
2022-09-07T00:25:32.140Z,17.49
2022-09-07T00:26:10.467Z,17.54
2022-09-07T00:26:42.090Z,17.51
2022-09-07T00:27:13.755Z,17.51
2022-09-07T00:27:45.355Z,17.52
2022-09-07T00:28:16.979Z,17.52
2022-09-07T00:28:49.738Z,17.51
2022-09-07T00:29:21.414Z,17.45
2022-09-07T00:29:53.042Z,17.45
2022-09-07T00:30:24.665Z,17.44
2022-09-07T00:30:56.454Z,17.48
2022-09-07T00:31:29.865Z,17.48
2022-09-07T00:32:01.603Z,17.47
2022-09-07T00:32:33.506Z,17.45
2022-09-07T00:33:05.094Z,17.47
2022-09-07T00:33:36.704Z,17.42
2022-09-07T00:34:08.316Z,17.48
2022-09-07T00:34:39.918Z,17.48
2022-09-07T00:35:12.688Z,17.48
2022-09-07T00:35:44.340Z,17.49
2022-09-07T00:36:17.111Z,17.45
2022-09-07T00:36:48.738Z,17.49
2022-09-07T00:37:20.495Z,17.47
2022-09-07T00:37:52.123Z,17.47
2022-09-07T00:38:23.717Z,17.54
2022-09-07T00:38:55.632Z,17.47
2022-09-07T00:39:27.253Z,17.39
2022-09-07T00:39:58.943Z,17.38
2022-09-07T00:40:30.972Z,17.34
2022-09-07T00:41:02.658Z,17.27
2022-09-07T00:41:34.322Z,17.28
2022-09-07T00:42:06.206Z,17.27
2022-09-07T00:42:37.924Z,17.31
2022-09-07T00:43:16.965Z,17.32
2022-09-07T00:43:51.648Z,17.34
2022-09-07T00:44:44.725Z,17.34
2022-09-07T00:45:17.830Z,17.32
2022-09-07T00:45:49.422Z,17.30
2022-09-07T00:46:25.097Z,17.27
2022-09-07T00:46:57.671Z,17.28
2022-09-07T00:47:45.096Z,17.31
2022-09-07T00:48:19.938Z,17.26
2022-09-07T00:49:02.454Z,17.24
2022-09-07T00:49:35.243Z,17.27
2022-09-07T00:50:27.934Z,17.28
2022-09-07T00:51:04.702Z,17.31
2022-09-07T00:51:43.781Z,17.30
2022-09-07T00:52:17.438Z,17.31
2022-09-07T00:52:53.203Z,17.30
2022-09-07T00:53:43.294Z,17.30
2022-09-07T00:54:19.352Z,17.27
2022-09-07T00:54:54.410Z,17.27
2022-09-07T00:55:27.633Z,17.28
2022-09-07T00:56:01.228Z,17.24
2022-09-07T00:56:36.878Z,17.27
2022-09-07T00:57:08.950Z,17.27
2022-09-07T00:57:43.153Z,17.20
2022-09-07T00:58:15.776Z,17.21
2022-09-07T00:58:47.474Z,17.23
2022-09-07T00:59:25.589Z,17.24
2022-09-07T00:59:57.784Z,17.28
2022-09-07T01:00:30.858Z,17.31
2022-09-07T01:01:02.499Z,17.28
2022-09-07T01:01:34.749Z,17.26
2022-09-07T01:02:06.694Z,17.17
2022-09-07T01:02:38.884Z,17.20
2022-09-07T01:03:11.436Z,17.23
2022-09-07T01:03:48.864Z,17.20
2022-09-07T01:04:22.245Z,17.21
2022-09-07T01:05:04.494Z,17.18
2022-09-07T01:05:43.666Z,17.18
2022-09-07T01:06:26.438Z,17.16
2022-09-07T01:06:58.996Z,17.14
2022-09-07T01:07:30.875Z,17.14
2022-09-07T01:08:03.134Z,17.16
2022-09-07T01:08:35.998Z,17.14
2022-09-07T01:09:11.635Z,17.10
2022-09-07T01:09:44.095Z,17.08
2022-09-07T01:10:15.982Z,17.07
2022-09-07T01:10:47.618Z,17.03
2022-09-07T01:11:22.276Z,17.06
2022-09-07T01:11:57.709Z,17.13
2022-09-07T01:12:29.329Z,17.21
2022-09-07T01:13:00.985Z,17.21
2022-09-07T01:13:32.634Z,17.17
2022-09-07T01:14:09.208Z,17.10
2022-09-07T01:14:50.637Z,17.06
2022-09-07T01:15:25.271Z,16.99
2022-09-07T01:16:16.051Z,17.00
2022-09-07T01:17:17.110Z,16.99
2022-09-07T01:18:03.570Z,17.03
2022-09-07T01:19:19.272Z,16.93
2022-09-07T01:20:09.291Z,16.87
2022-09-07T01:20:43.819Z,16.91
2022-09-07T01:21:33.109Z,16.96
2022-09-07T01:22:34.740Z,16.93
2022-09-07T01:23:21.311Z,16.99
2022-09-07T01:24:27.745Z,17.03
2022-09-07T01:25:04.777Z,16.96
2022-09-07T01:26:01.310Z,16.94
2022-09-07T01:26:56.987Z,16.96
2022-09-07T01:27:36.209Z,16.96
2022-09-07T01:28:32.320Z,16.93
2022-09-07T01:29:16.681Z,16.89
2022-09-07T01:29:54.230Z,16.80
2022-09-07T01:30:27.289Z,16.76
2022-09-07T01:31:04.618Z,16.80
2022-09-07T01:32:02.954Z,16.73
2022-09-07T01:32:48.213Z,16.72
2022-09-07T01:33:51.731Z,16.75
2022-09-07T01:34:26.435Z,16.69
2022-09-07T01:35:01.957Z,16.68
2022-09-07T01:35:36.458Z,16.60
2022-09-07T01:36:10.682Z,16.60
2022-09-07T01:36:57.227Z,16.62
2022-09-07T01:37:50.587Z,16.63
2022-09-07T01:38:33.173Z,16.62
2022-09-07T01:39:06.325Z,16.63
2022-09-07T01:39:51.635Z,16.59
2022-09-07T01:40:38.285Z,16.60
2022-09-07T01:41:35.613Z,16.48
2022-09-07T01:42:15.585Z,16.45
2022-09-07T01:42:59.495Z,16.55
2022-09-07T01:43:34.061Z,16.53
2022-09-07T01:44:08.005Z,16.60
2022-09-07T01:44:46.529Z,16.60
2022-09-07T01:45:22.163Z,16.58
2022-09-07T01:45:56.158Z,16.55
2022-09-07T01:46:31.849Z,16.52
2022-09-07T01:47:13.197Z,16.49
2022-09-07T01:47:53.073Z,16.51
2022-09-07T01:48:26.478Z,16.52
2022-09-07T01:49:08.287Z,16.51
2022-09-07T01:49:42.630Z,16.58
2022-09-07T01:50:16.845Z,16.58
2022-09-07T01:50:58.023Z,16.56
2022-09-07T01:51:33.545Z,16.48
2022-09-07T01:52:40.068Z,16.32
2022-09-07T01:53:34.861Z,16.39
2022-09-07T01:54:13.119Z,16.36
2022-09-07T01:54:51.837Z,16.38
2022-09-07T01:55:49.855Z,16.32
2022-09-07T01:56:27.808Z,16.28
2022-09-07T01:57:05.175Z,16.26
2022-09-07T01:57:43.568Z,16.28
2022-09-07T01:58:22.034Z,16.31
2022-09-07T01:58:58.722Z,16.29
2022-09-07T01:59:32.617Z,16.33
2022-09-07T02:00:07.951Z,16.35
2022-09-07T02:01:36.643Z,16.31
2022-09-07T02:02:16.674Z,16.26
2022-09-07T02:03:12.106Z,16.22
2022-09-07T02:03:58.446Z,16.24
2022-09-07T02:04:39.981Z,16.31
2022-09-07T02:05:19.149Z,16.32
2022-09-07T02:06:10.759Z,16.24
2022-09-07T02:07:04.800Z,16.33
2022-09-07T02:07:42.365Z,16.32
2022-09-07T02:08:19.473Z,16.31
2022-09-07T02:09:04.633Z,16.36
2022-09-07T02:09:42.739Z,16.36
2022-09-07T02:10:19.439Z,16.32
2022-09-07T02:11:03.901Z,16.28
2022-09-07T02:11:39.960Z,16.21
2022-09-07T02:12:26.985Z,16.17
2022-09-07T02:13:12.231Z,16.25
2022-09-07T02:13:54.221Z,16.28
2022-09-07T02:14:32.252Z,16.24
2022-09-07T02:15:11.107Z,16.31
2022-09-07T02:15:52.236Z,16.31
2022-09-07T02:16:28.417Z,16.28
2022-09-07T02:17:12.317Z,16.28
2022-09-07T02:17:49.645Z,16.26
2022-09-07T02:18:22.936Z,16.29
2022-09-07T02:19:02.553Z,16.20
2022-09-07T02:19:42.496Z,16.24
2022-09-07T02:20:19.456Z,16.31
2022-09-07T02:20:54.560Z,16.28
2022-09-07T02:21:36.565Z,16.29
2022-09-07T02:22:14.399Z,16.26
2022-09-07T02:22:51.067Z,16.20
2022-09-07T02:23:26.245Z,16.25
2022-09-07T02:24:04.583Z,16.22
2022-09-07T02:24:42.894Z,16.28
2022-09-07T02:25:21.981Z,16.35
2022-09-07T02:26:02.129Z,16.35
2022-09-07T02:26:36.739Z,16.39
2022-09-07T02:27:13.540Z,16.44
2022-09-07T02:27:54.399Z,16.38
2022-09-07T02:28:44.166Z,16.51
2022-09-07T02:29:15.874Z,16.53
2022-09-07T02:29:47.645Z,16.56
2022-09-07T02:30:19.353Z,16.55
2022-09-07T02:30:51.179Z,16.52
2022-09-07T02:31:23.753Z,16.56
2022-09-07T02:31:55.479Z,16.59
2022-09-07T02:32:27.131Z,16.59
2022-09-07T02:32:58.860Z,16.59
2022-09-07T02:33:31.064Z,16.62
2022-09-07T02:34:02.677Z,16.62
2022-09-07T02:34:34.406Z,16.68
2022-09-07T02:35:06.781Z,16.66
2022-09-07T02:35:38.596Z,16.68
2022-09-07T02:36:12.722Z,16.66
2022-09-07T02:36:47.758Z,16.66
2022-09-07T02:37:20.579Z,16.65
2022-09-07T02:37:53.124Z,16.56
2022-09-07T02:38:24.829Z,16.58
2022-09-07T02:38:56.535Z,16.60
2022-09-07T02:39:28.404Z,16.65
2022-09-07T02:40:00.494Z,16.76
2022-09-07T02:40:32.662Z,16.77
2022-09-07T02:41:05.450Z,16.80
2022-09-07T02:41:40.303Z,16.79
2022-09-07T02:42:12.013Z,16.80
2022-09-07T02:42:45.153Z,16.77
2022-09-07T02:43:16.811Z,16.77
2022-09-07T02:43:48.425Z,16.83
2022-09-07T02:44:23.294Z,16.83
2022-09-07T02:44:55.085Z,16.87
2022-09-07T02:45:37.866Z,16.87
2022-09-07T02:46:19.679Z,16.87
2022-09-07T02:47:15.754Z,16.86
2022-09-07T02:47:48.558Z,16.83
2022-09-07T02:48:29.755Z,16.81
2022-09-07T02:49:01.356Z,16.83
2022-09-07T02:50:04.350Z,16.81
2022-09-07T02:50:58.666Z,16.81
2022-09-07T02:51:45.567Z,16.80
2022-09-07T02:52:28.994Z,16.79
2022-09-07T02:53:27.539Z,16.87
2022-09-07T02:54:40.557Z,16.91
2022-09-07T02:55:31.708Z,16.84
2022-09-07T02:56:12.605Z,16.81
2022-09-07T02:57:10.030Z,16.80
2022-09-07T02:58:44.127Z,16.77
2022-09-07T02:59:37.506Z,16.72
2022-09-07T03:00:18.022Z,16.75
2022-09-07T03:01:04.235Z,16.83
2022-09-07T03:01:41.722Z,16.84
2022-09-07T03:02:24.893Z,16.87
2022-09-07T03:03:21.440Z,16.86
2022-09-07T03:04:18.642Z,16.86
2022-09-07T03:05:14.594Z,16.81
2022-09-07T03:06:02.941Z,16.89
2022-09-07T03:06:53.409Z,16.86
2022-09-07T03:07:35.782Z,16.86
2022-09-07T03:08:14.063Z,16.80
2022-09-07T03:08:50.605Z,16.79
2022-09-07T03:09:28.683Z,16.80
2022-09-07T03:10:03.121Z,16.81
2022-09-07T03:10:38.734Z,16.86
2022-09-07T03:11:10.613Z,16.87
2022-09-07T03:11:42.593Z,16.84
2022-09-07T03:12:14.463Z,16.86
2022-09-07T03:12:49.320Z,16.79
2022-09-07T03:13:26.747Z,16.80
2022-09-07T03:14:15.419Z,16.86
2022-09-07T03:14:47.039Z,16.86
2022-09-07T03:15:22.496Z,16.93
2022-09-07T03:15:56.308Z,16.87
2022-09-07T03:16:28.151Z,16.91
2022-09-07T03:17:00.462Z,16.89
2022-09-07T03:17:32.185Z,16.89
2022-09-07T03:18:03.845Z,16.91
2022-09-07T03:18:35.449Z,16.91
2022-09-07T03:19:07.064Z,16.90
2022-09-07T03:19:38.733Z,16.94
2022-09-07T03:20:10.685Z,16.96
2022-09-07T03:20:42.318Z,16.93
2022-09-07T03:21:13.929Z,16.94
2022-09-07T03:21:45.724Z,16.94
2022-09-07T03:22:17.309Z,17.02
2022-09-07T03:22:50.577Z,17.18
2022-09-07T03:23:22.310Z,17.24
2022-09-07T03:23:54.964Z,17.24
2022-09-07T03:24:26.537Z,17.20
2022-09-07T03:24:58.138Z,17.24
2022-09-07T03:25:29.735Z,17.26
2022-09-07T03:26:01.339Z,17.30
2022-09-07T03:26:33.009Z,17.34
2022-09-07T03:27:04.637Z,17.39
2022-09-07T03:27:36.375Z,17.39
2022-09-07T03:28:08.005Z,17.34
2022-09-07T03:28:39.594Z,17.37
2022-09-07T03:29:11.305Z,17.34
2022-09-07T03:29:43.001Z,17.44
2022-09-07T03:30:14.781Z,17.47
2022-09-07T03:30:49.345Z,17.44
2022-09-07T03:31:21.089Z,17.39
2022-09-07T03:31:53.030Z,17.44
2022-09-07T03:32:24.947Z,17.42
2022-09-07T03:32:56.625Z,17.41
2022-09-07T03:33:28.253Z,17.41
2022-09-07T03:33:59.915Z,17.44
2022-09-07T03:34:31.574Z,17.38
2022-09-07T03:35:04.745Z,17.32
2022-09-07T03:35:36.349Z,17.30
2022-09-07T03:36:08.167Z,17.34
2022-09-07T03:36:40.497Z,17.35
2022-09-07T03:37:12.126Z,17.38
2022-09-07T03:37:44.308Z,17.39
2022-09-07T03:38:15.961Z,17.30
2022-09-07T03:38:47.533Z,17.30
2022-09-07T03:39:22.616Z,17.24
2022-09-07T03:39:54.330Z,17.23
2022-09-07T03:40:25.969Z,17.28
2022-09-07T03:40:59.676Z,17.37
2022-09-07T03:41:31.443Z,17.32
2022-09-07T03:42:03.119Z,17.30
2022-09-07T03:42:35.458Z,17.27
2022-09-07T03:43:07.070Z,17.21
2022-09-07T03:43:38.900Z,17.21
2022-09-07T03:44:11.793Z,17.26
2022-09-07T03:44:43.389Z,17.30
2022-09-07T03:45:15.014Z,17.34
2022-09-07T03:45:46.628Z,17.35
2022-09-07T03:46:19.578Z,17.26
2022-09-07T03:46:51.277Z,17.24
2022-09-07T03:47:22.897Z,17.23
2022-09-07T03:47:54.525Z,17.18
2022-09-07T03:48:27.305Z,17.14
2022-09-07T03:48:58.997Z,17.20
2022-09-07T03:49:30.927Z,17.24
2022-09-07T03:50:03.022Z,17.24
2022-09-07T03:50:34.622Z,17.31
2022-09-07T03:51:09.022Z,17.34
2022-09-07T03:51:40.609Z,17.23
2022-09-07T03:52:12.414Z,17.21
2022-09-07T03:52:44.279Z,17.23
2022-09-07T03:53:15.899Z,17.23
2022-09-07T03:53:47.885Z,17.28
2022-09-07T03:54:19.468Z,17.31
2022-09-07T03:54:51.061Z,17.39
2022-09-07T03:55:22.720Z,17.39
2022-09-07T03:56:09.355Z,17.42
2022-09-07T03:56:40.975Z,17.39
2022-09-07T03:57:13.322Z,17.45
2022-09-07T03:57:44.904Z,17.42
2022-09-07T03:58:16.510Z,17.45
2022-09-07T03:58:49.938Z,17.42
2022-09-07T03:59:21.772Z,17.37
2022-09-07T03:59:53.363Z,17.38
2022-09-07T04:00:26.138Z,17.35
2022-09-07T04:00:58.820Z,17.30
2022-09-07T04:01:30.640Z,17.24
2022-09-07T04:02:02.561Z,17.21
2022-09-07T04:02:34.270Z,17.23
2022-09-07T04:03:05.882Z,17.18
2022-09-07T04:03:37.855Z,17.17
2022-09-07T04:04:09.488Z,17.17
2022-09-07T04:04:42.863Z,17.10
2022-09-07T04:05:15.054Z,17.10
2022-09-07T04:05:46.750Z,17.11
2022-09-07T04:06:18.783Z,17.04
2022-09-07T04:06:50.926Z,17.00
2022-09-07T04:07:22.547Z,17.02
2022-09-07T04:07:54.156Z,17.00
2022-09-07T04:08:27.821Z,16.96
2022-09-07T04:09:17.752Z,16.96
2022-09-07T04:09:51.322Z,16.99
2022-09-07T04:10:22.914Z,17.02
2022-09-07T04:10:57.300Z,17.06
2022-09-07T04:11:28.902Z,17.04
2022-09-07T04:12:00.698Z,17.04
2022-09-07T04:12:32.342Z,17.08
2022-09-07T04:13:04.258Z,17.06
2022-09-07T04:13:36.684Z,16.99
2022-09-07T04:14:10.103Z,16.94
2022-09-07T04:14:41.730Z,16.94
2022-09-07T04:15:13.374Z,16.94
2022-09-07T04:15:44.962Z,16.91
2022-09-07T04:16:22.048Z,16.87
2022-09-07T04:16:53.736Z,16.87
2022-09-07T04:17:25.330Z,16.86
2022-09-07T04:17:56.918Z,16.84
2022-09-07T04:18:28.504Z,16.83
2022-09-07T04:19:00.194Z,16.89
2022-09-07T04:19:32.073Z,16.89
2022-09-07T04:20:04.630Z,16.87
2022-09-07T04:20:36.252Z,16.86
2022-09-07T04:21:07.994Z,16.89
2022-09-07T04:21:39.966Z,16.87
2022-09-07T04:22:11.693Z,16.89
2022-09-07T04:22:44.132Z,16.90
2022-09-07T04:23:15.726Z,16.84
2022-09-07T04:23:47.914Z,16.83
2022-09-07T04:24:19.532Z,16.83
2022-09-07T04:24:51.187Z,16.83
2022-09-07T04:25:22.848Z,16.89
2022-09-07T04:25:54.539Z,16.87
2022-09-07T04:26:31.925Z,16.83
2022-09-07T04:27:03.612Z,16.84
2022-09-07T04:27:35.237Z,16.91
2022-09-07T04:28:06.818Z,16.86
2022-09-07T04:28:38.404Z,16.86
2022-09-07T04:29:11.371Z,16.87
2022-09-07T04:29:42.977Z,16.86
2022-09-07T04:30:14.588Z,16.89
2022-09-07T04:30:47.451Z,16.89
2022-09-07T04:31:20.308Z,16.90
2022-09-07T04:31:51.994Z,16.93
2022-09-07T04:32:23.610Z,16.94
2022-09-07T04:32:55.210Z,16.97
2022-09-07T04:33:26.788Z,16.99
2022-09-07T04:33:58.498Z,17.03
2022-09-07T04:34:30.256Z,17.00
2022-09-07T04:35:02.114Z,17.08
2022-09-07T04:35:36.836Z,17.16
2022-09-07T04:36:10.484Z,17.16
2022-09-07T04:36:42.143Z,17.16
2022-09-07T04:37:13.731Z,17.18
2022-09-07T04:37:45.574Z,17.13
2022-09-07T04:38:17.241Z,17.08
2022-09-07T04:38:55.737Z,17.06
2022-09-07T04:39:27.421Z,17.07
2022-09-07T04:39:59.100Z,17.06
2022-09-07T04:40:30.744Z,17.10
2022-09-07T04:41:09.413Z,17.16
2022-09-07T04:41:41.022Z,17.18
2022-09-07T04:42:12.657Z,17.20
2022-09-07T04:42:44.394Z,17.23
2022-09-07T04:43:16.093Z,17.24
2022-09-07T04:43:48.194Z,17.24
2022-09-07T04:44:19.777Z,17.27
2022-09-07T04:44:51.362Z,17.21
2022-09-07T04:45:22.972Z,17.23
2022-09-07T04:45:54.769Z,17.27
2022-09-07T04:46:35.126Z,17.18
2022-09-07T04:47:06.914Z,17.23
2022-09-07T04:47:38.516Z,17.17
2022-09-07T04:48:10.105Z,17.16
2022-09-07T04:48:41.693Z,17.17
2022-09-07T04:49:13.824Z,17.17
2022-09-07T04:49:45.402Z,17.20
2022-09-07T04:50:18.382Z,17.17
2022-09-07T04:50:52.080Z,17.17
2022-09-07T04:51:26.278Z,17.21
2022-09-07T04:51:57.916Z,17.21
2022-09-07T04:52:29.544Z,17.21
2022-09-07T04:53:01.137Z,17.16
2022-09-07T04:53:34.159Z,17.17
2022-09-07T04:54:06.318Z,17.21
2022-09-07T04:54:38.025Z,17.24
2022-09-07T04:55:10.379Z,17.21
2022-09-07T04:55:41.965Z,17.24
2022-09-07T04:56:16.872Z,17.21
2022-09-07T04:56:48.722Z,17.23
2022-09-07T04:57:24.243Z,17.21
2022-09-07T04:57:55.881Z,17.23
2022-09-07T04:58:28.020Z,17.28
2022-09-07T04:59:01.369Z,17.28
2022-09-07T04:59:32.953Z,17.30
2022-09-07T05:00:10.964Z,17.24
2022-09-07T05:00:42.742Z,17.26
2022-09-07T05:01:17.668Z,17.32
2022-09-07T05:01:49.340Z,17.35
2022-09-07T05:02:21.046Z,17.37
2022-09-07T05:02:52.895Z,17.42
2022-09-07T05:03:24.583Z,17.45
2022-09-07T05:03:56.819Z,17.51
2022-09-07T05:04:28.407Z,17.52
2022-09-07T05:05:02.743Z,17.55
2022-09-07T05:05:38.171Z,17.59
2022-09-07T05:06:10.486Z,17.62
2022-09-07T05:06:42.221Z,17.66
2022-09-07T05:07:13.967Z,17.72
2022-09-07T05:07:45.617Z,17.71
2022-09-07T05:08:17.282Z,17.71
2022-09-07T05:08:51.331Z,17.71
2022-09-07T05:09:22.973Z,17.68
2022-09-07T05:09:54.549Z,17.74
2022-09-07T05:10:26.356Z,17.74
2022-09-07T05:10:57.965Z,17.79
2022-09-07T05:11:30.166Z,17.75
2022-09-07T05:12:02.189Z,17.78
2022-09-07T05:12:33.789Z,17.79
2022-09-07T05:13:05.500Z,17.78
2022-09-07T05:13:37.469Z,17.82
2022-09-07T05:14:10.430Z,17.85
2022-09-07T05:14:42.021Z,17.79
2022-09-07T05:15:13.725Z,17.86
2022-09-07T05:15:45.374Z,17.89
2022-09-07T05:16:19.661Z,17.89
2022-09-07T05:16:51.330Z,17.89
2022-09-07T05:17:23.015Z,17.86
2022-09-07T05:17:54.591Z,17.85
2022-09-07T05:18:26.687Z,17.88
2022-09-07T05:19:02.751Z,17.96
2022-09-07T05:19:34.377Z,18.03
2022-09-07T05:20:07.145Z,18.05
2022-09-07T05:20:38.733Z,18.09
2022-09-07T05:21:19.177Z,18.09
2022-09-07T05:21:50.781Z,18.13
2022-09-07T05:22:22.462Z,18.16
2022-09-07T05:22:59.546Z,18.18
2022-09-07T05:23:31.264Z,18.17
2022-09-07T05:24:04.190Z,18.20
2022-09-07T05:24:36.779Z,18.17
2022-09-07T05:25:09.563Z,18.18
2022-09-07T05:25:45.425Z,18.22
2022-09-07T05:26:18.153Z,18.18
2022-09-07T05:26:49.765Z,18.22
2022-09-07T05:27:21.489Z,18.23
2022-09-07T05:27:53.441Z,18.30
2022-09-07T05:28:25.027Z,18.34
2022-09-07T05:30:05.834Z,18.43
2022-09-07T05:31:31.210Z,18.46
2022-09-07T05:32:02.853Z,18.51
2022-09-07T05:32:34.430Z,18.53
2022-09-07T05:33:08.214Z,18.58
2022-09-07T05:34:32.524Z,18.67
2022-09-07T05:35:04.682Z,18.68
2022-09-07T05:35:36.315Z,18.69
2022-09-07T05:36:08.713Z,18.69
2022-09-07T05:36:40.448Z,18.71
2022-09-07T05:37:12.124Z,18.74
2022-09-07T05:37:43.827Z,18.76
2022-09-07T05:38:15.443Z,18.75
2022-09-07T05:38:47.441Z,18.75
2022-09-07T05:39:21.089Z,18.72
2022-09-07T05:39:56.893Z,18.76
2022-09-07T05:40:31.796Z,18.76
2022-09-07T05:41:17.794Z,18.69
2022-09-07T05:41:49.814Z,18.91
2022-09-07T05:42:21.412Z,19.32
2022-09-07T05:42:53.001Z,19.23
2022-09-07T05:43:24.657Z,19.15
2022-09-07T05:44:48.146Z,19.63
2022-09-07T05:45:19.832Z,19.53
2022-09-07T05:45:55.337Z,19.42
2022-09-07T05:46:27.010Z,19.46
2022-09-07T05:46:58.619Z,19.46
2022-09-07T05:47:30.264Z,19.39
2022-09-07T05:48:02.187Z,19.30
2022-09-07T05:48:33.984Z,19.34
2022-09-07T05:49:06.475Z,19.36
2022-09-07T05:49:38.186Z,19.32
2022-09-07T05:50:10.700Z,19.47
2022-09-07T05:50:52.696Z,20.11
2022-09-07T05:51:24.288Z,20.24
2022-09-07T05:51:55.864Z,20.02
2022-09-07T05:52:27.469Z,19.90
2022-09-07T05:52:59.330Z,19.78
2022-09-07T05:53:31.619Z,19.98
2022-09-07T05:54:03.670Z,20.04
2022-09-07T05:54:35.374Z,19.97
2022-09-07T05:55:28.183Z,19.85
2022-09-07T05:56:03.949Z,19.71
2022-09-07T05:56:38.211Z,19.71
2022-09-07T05:57:12.102Z,19.53
2022-09-07T05:57:43.700Z,19.97
2022-09-07T05:58:16.129Z,19.85
2022-09-07T05:58:50.808Z,20.24
2022-09-07T05:59:22.412Z,20.69
2022-09-07T05:59:54.061Z,20.45
2022-09-07T06:00:25.678Z,20.18
2022-09-07T06:01:01.809Z,20.05
2022-09-07T06:01:35.344Z,19.97
2022-09-07T06:02:07.693Z,20.02
2022-09-07T06:02:40.007Z,19.85
2022-09-07T06:03:12.094Z,19.77
2022-09-07T06:03:44.706Z,19.77
2022-09-07T06:04:16.659Z,19.84
2022-09-07T06:04:48.602Z,19.83
2022-09-07T06:05:20.193Z,19.85
2022-09-07T06:06:11.951Z,19.75
2022-09-07T06:06:54.590Z,19.98
2022-09-07T06:07:35.147Z,20.65
2022-09-07T06:08:06.834Z,20.81
2022-09-07T06:08:43.520Z,20.36
2022-09-07T06:09:15.114Z,20.22
2022-09-07T06:10:46.140Z,20.05
2022-09-07T06:11:20.326Z,19.85
2022-09-07T06:11:51.912Z,19.93
2022-09-07T06:12:23.572Z,19.91
2022-09-07T06:12:55.151Z,20.04
2022-09-07T06:13:26.979Z,20.07
2022-09-07T06:13:58.591Z,19.83
2022-09-07T06:14:30.208Z,19.78
2022-09-07T06:15:01.921Z,19.71
2022-09-07T06:15:34.422Z,19.70
2022-09-07T06:16:08.166Z,19.80
2022-09-07T06:16:40.129Z,19.77
2022-09-07T06:17:11.746Z,20.24
2022-09-07T06:17:43.468Z,20.10
2022-09-07T06:18:15.247Z,20.12
2022-09-07T06:18:48.607Z,20.05
2022-09-07T06:19:20.190Z,19.94
2022-09-07T06:19:51.774Z,20.21
2022-09-07T06:20:23.381Z,20.43
2022-09-07T06:20:55.059Z,20.55
2022-09-07T06:21:26.790Z,20.53
2022-09-07T06:21:58.376Z,20.76
2022-09-07T06:22:31.241Z,20.99
2022-09-07T06:23:03.013Z,21.06
2022-09-07T06:23:36.607Z,21.03
2022-09-07T06:24:08.476Z,20.99
2022-09-07T06:24:40.074Z,20.97
2022-09-07T06:25:11.659Z,20.80
2022-09-07T06:25:49.805Z,20.91
2022-09-07T06:26:21.550Z,21.12
2022-09-07T06:26:53.174Z,21.42
2022-09-07T06:27:24.811Z,21.57
2022-09-07T06:27:56.400Z,21.28
2022-09-07T06:28:30.134Z,21.17
2022-09-07T06:29:02.645Z,21.28
2022-09-07T06:29:34.378Z,21.83
2022-09-07T06:30:07.413Z,21.61
2022-09-07T06:30:39.042Z,21.52
2022-09-07T06:31:13.548Z,21.37
2022-09-07T06:32:45.691Z,21.24
2022-09-07T06:33:21.425Z,21.18
2022-09-07T06:33:54.913Z,21.26
2022-09-07T06:34:26.740Z,21.31
2022-09-07T06:34:58.362Z,21.04
2022-09-07T06:35:29.954Z,21.01
2022-09-07T06:36:21.837Z,21.04
2022-09-07T06:36:53.459Z,21.03
2022-09-07T06:37:25.082Z,21.03
2022-09-07T06:37:56.757Z,21.08
2022-09-07T06:38:32.841Z,21.27
2022-09-07T06:39:04.470Z,21.10
2022-09-07T06:39:36.469Z,21.41
2022-09-07T06:40:10.477Z,21.52
2022-09-07T06:40:42.420Z,21.81
2022-09-07T06:42:10.622Z,21.66
2022-09-07T06:42:42.375Z,21.96
2022-09-07T06:43:13.962Z,22.02
2022-09-07T06:43:46.502Z,21.88
2022-09-07T06:44:18.308Z,21.75
2022-09-07T06:44:49.883Z,21.83
2022-09-07T06:45:21.599Z,22.00
2022-09-07T06:45:54.617Z,21.95
2022-09-07T06:47:18.693Z,21.63
2022-09-07T06:47:53.950Z,21.61
2022-09-07T06:48:25.770Z,21.58
2022-09-07T06:48:57.398Z,21.30
2022-09-07T06:49:29.074Z,21.34
2022-09-07T06:50:01.481Z,21.45
2022-09-07T06:50:33.720Z,21.38
2022-09-07T06:51:19.533Z,22.20
2022-09-07T06:51:51.306Z,22.00
2022-09-07T06:52:23.004Z,22.19
2022-09-07T06:53:48.313Z,22.43
2022-09-07T06:55:11.718Z,22.51
2022-09-07T06:55:46.141Z,22.56
2022-09-07T06:56:19.309Z,22.46
2022-09-07T06:56:50.986Z,22.46
2022-09-07T06:57:22.571Z,22.64
2022-09-07T06:57:54.675Z,22.75
2022-09-07T06:58:27.120Z,22.79
2022-09-07T06:58:59.831Z,22.68
2022-09-07T06:59:31.404Z,22.71
2022-09-07T07:00:03.778Z,22.74
2022-09-07T07:00:35.454Z,22.77
2022-09-07T07:01:18.484Z,22.99
2022-09-07T07:01:50.175Z,23.15
2022-09-07T07:02:21.802Z,22.91
2022-09-07T07:02:53.431Z,23.01
2022-09-07T07:03:25.195Z,23.12
2022-09-07T07:03:56.851Z,23.08
2022-09-07T07:04:28.431Z,23.46
2022-09-07T07:05:00.015Z,23.53
2022-09-07T07:05:31.829Z,23.46
2022-09-07T07:06:04.296Z,23.43
2022-09-07T07:06:37.810Z,23.20
2022-09-07T07:07:13.952Z,23.46
2022-09-07T07:07:45.571Z,23.42
2022-09-07T07:08:17.218Z,23.38
2022-09-07T07:08:53.236Z,23.33
2022-09-07T07:09:24.861Z,23.47
2022-09-07T07:09:56.451Z,23.67
2022-09-07T07:10:28.235Z,23.50
2022-09-07T07:11:08.124Z,23.66
2022-09-07T07:11:39.726Z,23.74
2022-09-07T07:12:11.466Z,23.73
2022-09-07T07:13:48.049Z,24.45
2022-09-07T07:14:21.167Z,24.66
2022-09-07T07:14:52.840Z,24.75
2022-09-07T07:15:28.625Z,24.86
2022-09-07T07:16:12.319Z,24.97
2022-09-07T07:16:44.146Z,25.04
2022-09-07T07:17:15.771Z,24.62
2022-09-07T07:17:53.160Z,24.73
2022-09-07T07:18:27.863Z,24.69
2022-09-07T07:18:59.518Z,24.47
2022-09-07T07:19:31.102Z,24.61
2022-09-07T07:20:02.973Z,24.22
2022-09-07T07:20:42.170Z,24.59
2022-09-07T07:21:15.644Z,24.24
2022-09-07T07:22:47.035Z,24.07
2022-09-07T07:23:18.862Z,24.20
2022-09-07T07:23:52.269Z,24.65
2022-09-07T07:24:23.850Z,24.76
2022-09-07T07:24:55.454Z,24.73
2022-09-07T07:25:27.268Z,24.36
2022-09-07T07:26:06.203Z,24.45
2022-09-07T07:26:38.164Z,24.49
2022-09-07T07:27:09.801Z,24.33
2022-09-07T07:27:41.574Z,23.91
2022-09-07T07:29:05.678Z,24.65
2022-09-07T07:29:37.261Z,25.11
2022-09-07T07:30:09.327Z,25.21
2022-09-07T07:30:40.937Z,25.45
2022-09-07T07:31:13.383Z,25.64
2022-09-07T07:31:45.183Z,25.82
2022-09-07T07:32:16.844Z,26.10
2022-09-07T07:32:48.467Z,25.99
2022-09-07T07:33:20.113Z,26.03
2022-09-07T07:33:54.074Z,25.74
2022-09-07T07:34:25.809Z,25.85
2022-09-07T07:34:57.486Z,26.05
2022-09-07T07:35:29.166Z,26.29
2022-09-07T07:36:08.500Z,26.56
2022-09-07T07:36:40.477Z,26.54
2022-09-07T07:37:12.022Z,26.58
2022-09-07T07:37:43.600Z,26.64
2022-09-07T07:39:06.805Z,26.67
2022-09-07T07:40:31.839Z,26.65
2022-09-07T07:42:00.140Z,26.68
2022-09-07T07:42:38.471Z,26.20
2022-09-07T07:43:10.181Z,25.68
2022-09-07T07:43:41.921Z,25.88
2022-09-07T07:44:13.500Z,25.99
2022-09-07T07:44:45.294Z,25.78